createdAt,value
2022-07-30T00:01:17.683Z,25.00
2022-07-30T00:03:44.678Z,25.00
2022-07-30T00:06:11.503Z,25.00
2022-07-30T00:08:38.197Z,25.00
2022-07-30T00:11:04.966Z,25.00
2022-07-30T00:13:31.886Z,25.00
2022-07-30T00:15:58.667Z,25.00
2022-07-30T00:18:25.382Z,25.00
2022-07-30T00:20:52.751Z,25.00
2022-07-30T00:23:19.482Z,24.90
2022-07-30T00:25:46.186Z,24.90
2022-07-30T00:28:12.901Z,24.90
2022-07-30T00:30:40.712Z,24.90
2022-07-30T00:33:08.302Z,24.90
2022-07-30T00:35:35.268Z,24.90
2022-07-30T00:38:02.012Z,24.90
2022-07-30T00:40:29.192Z,24.90
2022-07-30T00:42:56.003Z,24.90
2022-07-30T00:45:22.736Z,24.90
2022-07-30T00:47:49.549Z,24.90
2022-07-30T00:50:17.102Z,24.90
2022-07-30T00:52:44.809Z,24.90
2022-07-30T00:55:14.337Z,24.90
2022-07-30T00:57:42.491Z,24.90
2022-07-30T01:00:13.466Z,24.90
2022-07-30T01:02:40.372Z,24.90
2022-07-30T01:05:07.834Z,24.90
2022-07-30T01:07:34.857Z,24.90
2022-07-30T01:10:02.279Z,24.90
2022-07-30T01:12:29.679Z,24.90
2022-07-30T01:15:00.788Z,24.90
2022-07-30T01:17:27.706Z,24.90
2022-07-30T01:20:00.482Z,24.80
2022-07-30T01:22:30.847Z,24.80
2022-07-30T01:25:03.794Z,24.80
2022-07-30T01:27:51.744Z,24.80
2022-07-30T01:30:22.477Z,24.80
2022-07-30T01:32:51.042Z,24.80
2022-07-30T01:35:20.218Z,24.80
2022-07-30T01:37:47.820Z,24.80
2022-07-30T01:40:14.944Z,24.80
2022-07-30T01:42:45.026Z,24.80
2022-07-30T01:45:13.386Z,24.80
2022-07-30T01:47:42.515Z,24.70
2022-07-30T01:50:15.732Z,24.80
2022-07-30T01:52:45.614Z,24.80
2022-07-30T01:55:17.091Z,24.80
2022-07-30T01:57:46.991Z,24.80
2022-07-30T02:00:14.193Z,24.70
2022-07-30T02:02:41.324Z,24.80
2022-07-30T02:05:09.140Z,24.70
2022-07-30T02:07:38.045Z,24.80
2022-07-30T02:10:32.958Z,24.80
2022-07-30T02:13:01.853Z,24.70
2022-07-30T02:15:56.306Z,24.70
2022-07-30T02:18:50.712Z,24.70
2022-07-30T02:21:21.530Z,24.70
2022-07-30T02:23:50.414Z,24.70
2022-07-30T02:26:24.376Z,24.70
2022-07-30T02:28:56.959Z,25.80
2022-07-30T02:31:26.279Z,24.70
2022-07-30T02:33:56.443Z,24.70
2022-07-30T02:36:25.339Z,24.70
2022-07-30T02:38:52.655Z,24.70
2022-07-30T02:41:25.063Z,24.70
2022-07-30T02:43:53.208Z,24.70
2022-07-30T02:46:22.913Z,24.70
2022-07-30T02:48:51.270Z,24.70
2022-07-30T02:51:19.798Z,24.70
2022-07-30T02:53:51.386Z,24.70
2022-07-30T02:56:21.189Z,24.60
2022-07-30T02:58:49.877Z,24.70
2022-07-30T03:01:19.293Z,24.70
2022-07-30T03:03:47.615Z,24.70
2022-07-30T03:06:15.478Z,24.70
2022-07-30T03:08:44.856Z,24.60
2022-07-30T03:11:13.132Z,24.60
2022-07-30T03:13:40.062Z,24.60
2022-07-30T03:16:10.790Z,24.60
2022-07-30T03:18:39.605Z,24.60
2022-07-30T03:21:08.763Z,24.60
2022-07-30T03:23:37.625Z,24.60
2022-07-30T03:26:08.550Z,24.60
2022-07-30T03:28:39.181Z,24.60
2022-07-30T03:31:07.454Z,24.60
2022-07-30T03:33:38.627Z,24.60
2022-07-30T03:36:07.282Z,24.60
2022-07-30T03:38:37.488Z,24.60
2022-07-30T03:41:06.436Z,24.60
2022-07-30T03:43:34.276Z,24.60
2022-07-30T03:46:05.113Z,24.60
2022-07-30T03:48:34.364Z,24.60
2022-07-30T03:51:04.103Z,24.60
2022-07-30T03:53:31.856Z,24.60
2022-07-30T03:55:59.230Z,24.50
2022-07-30T03:58:25.994Z,24.50
2022-07-30T04:00:52.740Z,24.50
2022-07-30T04:03:30.423Z,24.50
2022-07-30T04:05:57.951Z,24.50
2022-07-30T04:08:25.022Z,24.50
2022-07-30T04:10:52.674Z,24.50
2022-07-30T04:13:19.583Z,24.50
2022-07-30T04:16:04.820Z,24.50
2022-07-30T04:18:51.638Z,24.50
2022-07-30T04:21:20.570Z,24.50
2022-07-30T04:24:02.829Z,24.50
2022-07-30T04:26:33.222Z,24.50
2022-07-30T04:29:01.433Z,24.50
2022-07-30T04:31:28.909Z,24.50
2022-07-30T04:33:55.780Z,24.50
2022-07-30T04:36:30.286Z,24.50
2022-07-30T04:38:58.126Z,24.50
2022-07-30T04:41:25.123Z,24.50
2022-07-30T04:43:52.926Z,24.50
2022-07-30T04:46:19.768Z,24.50
2022-07-30T04:48:48.080Z,24.50
2022-07-30T04:51:34.831Z,24.50
2022-07-30T04:54:05.380Z,24.50
2022-07-30T04:56:35.021Z,24.50
2022-07-30T04:59:02.434Z,24.50
2022-07-30T05:01:40.722Z,24.50
2022-07-30T05:04:10.315Z,24.50
2022-07-30T05:06:38.005Z,24.50
2022-07-30T05:09:04.829Z,24.50
2022-07-30T05:11:31.606Z,24.50
2022-07-30T05:13:58.344Z,24.50
2022-07-30T05:16:25.354Z,24.50
2022-07-30T05:18:52.200Z,24.50
2022-07-30T05:21:18.939Z,24.50
2022-07-30T05:23:50.005Z,24.50
2022-07-30T05:26:21.122Z,24.50
2022-07-30T05:28:53.557Z,24.50
2022-07-30T05:31:22.136Z,24.50
2022-07-30T05:33:48.937Z,24.50
2022-07-30T05:36:15.849Z,24.50
2022-07-30T05:38:42.565Z,24.50
2022-07-30T05:41:21.393Z,24.50
2022-07-30T05:43:56.895Z,24.50
2022-07-30T05:46:24.239Z,24.50
2022-07-30T05:48:51.124Z,24.50
2022-07-30T05:51:19.705Z,24.50
2022-07-30T05:53:46.832Z,24.50
2022-07-30T05:56:13.797Z,24.50
2022-07-30T05:58:40.717Z,24.50
2022-07-30T06:01:07.888Z,24.50
2022-07-30T06:03:34.966Z,24.50
2022-07-30T06:06:04.817Z,24.50
2022-07-30T06:08:31.964Z,24.50
2022-07-30T06:10:58.834Z,24.50
2022-07-30T06:13:26.039Z,24.50
2022-07-30T06:15:52.813Z,24.60
2022-07-30T06:18:19.671Z,24.60
2022-07-30T06:20:54.732Z,24.50
2022-07-30T06:23:22.163Z,24.60
2022-07-30T06:25:49.936Z,24.60
2022-07-30T06:28:36.477Z,24.60
2022-07-30T06:31:04.179Z,24.60
2022-07-30T06:33:31.050Z,24.60
2022-07-30T06:35:57.897Z,24.60
2022-07-30T06:38:24.838Z,24.60
2022-07-30T06:40:51.546Z,24.60
2022-07-30T06:43:19.495Z,24.60
2022-07-30T06:45:46.261Z,24.60
2022-07-30T06:48:13.205Z,24.60
2022-07-30T06:50:41.715Z,24.60
2022-07-30T06:53:08.524Z,24.60
2022-07-30T06:55:35.467Z,24.60
2022-07-30T06:58:02.321Z,24.70
2022-07-30T07:00:29.211Z,24.60
2022-07-30T07:02:55.921Z,24.70
2022-07-30T07:05:23.615Z,24.70
2022-07-30T07:07:58.839Z,24.70
2022-07-30T07:10:26.815Z,24.70
2022-07-30T07:12:53.743Z,24.70
2022-07-30T07:15:22.467Z,24.70
2022-07-30T07:18:03.736Z,24.70
2022-07-30T07:20:30.588Z,24.70
2022-07-30T07:22:57.627Z,24.70
2022-07-30T07:25:24.708Z,24.70
2022-07-30T07:28:11.015Z,24.70
2022-07-30T07:30:38.352Z,24.70
2022-07-30T07:33:05.112Z,24.70
2022-07-30T07:35:33.108Z,24.70
2022-07-30T07:38:16.464Z,24.70
2022-07-30T07:40:43.313Z,24.80
2022-07-30T07:43:10.030Z,24.70
2022-07-30T07:45:36.744Z,24.70
2022-07-30T07:48:03.762Z,24.70
2022-07-30T07:50:30.552Z,24.70
2022-07-30T07:52:57.315Z,24.70
2022-07-30T07:55:24.740Z,24.70
2022-07-30T07:57:52.703Z,24.70
2022-07-30T08:00:21.136Z,24.70
2022-07-30T08:02:48.187Z,24.70
2022-07-30T08:05:15.442Z,24.70
2022-07-30T08:07:43.839Z,24.70
2022-07-30T08:10:11.185Z,24.70
2022-07-30T08:12:38.231Z,24.80
2022-07-30T08:15:05.633Z,24.80
2022-07-30T08:17:32.796Z,24.80
2022-07-30T08:20:00.840Z,24.90
2022-07-30T08:22:28.059Z,24.90
2022-07-30T08:24:54.792Z,24.80
2022-07-30T08:27:21.579Z,24.80
2022-07-30T08:29:48.294Z,24.80
2022-07-30T08:32:15.007Z,24.80
2022-07-30T08:34:41.774Z,24.90
2022-07-30T08:37:09.637Z,24.90
2022-07-30T08:39:36.363Z,24.90
2022-07-30T08:42:04.780Z,24.90
2022-07-30T08:44:33.187Z,24.90
2022-07-30T08:47:01.908Z,24.90
2022-07-30T08:49:29.100Z,24.90
2022-07-30T08:51:56.711Z,24.90
2022-07-30T08:54:23.581Z,24.90
2022-07-30T08:56:50.525Z,24.90
2022-07-30T08:59:18.272Z,24.90
2022-07-30T09:01:45.139Z,24.90
2022-07-30T09:04:11.914Z,24.80
2022-07-30T09:06:40.809Z,24.80
2022-07-30T09:09:08.231Z,24.80
2022-07-30T09:11:36.228Z,24.80
2022-07-30T09:14:14.392Z,24.80
2022-07-30T09:16:43.595Z,24.80
2022-07-30T09:19:21.658Z,24.90
2022-07-30T09:22:01.860Z,24.80
2022-07-30T09:24:28.668Z,24.90
2022-07-30T09:27:02.501Z,24.90
2022-07-30T09:29:31.150Z,24.80
2022-07-30T09:32:06.806Z,24.80
2022-07-30T09:34:36.455Z,24.80
2022-07-30T09:37:12.702Z,24.80
2022-07-30T09:39:42.319Z,24.80
2022-07-30T09:42:25.763Z,24.80
2022-07-30T09:45:04.732Z,24.80
2022-07-30T09:47:39.276Z,24.80
2022-07-30T09:50:12.230Z,24.80
2022-07-30T09:52:43.874Z,24.80
2022-07-30T09:55:12.514Z,24.90
2022-07-30T10:00:45.094Z,24.90
2022-07-30T10:03:21.955Z,24.90
2022-07-30T10:06:02.892Z,24.90
2022-07-30T10:08:52.272Z,24.90
2022-07-30T10:11:24.433Z,24.90
2022-07-30T10:13:55.171Z,24.90
2022-07-30T10:16:25.591Z,24.90
2022-07-30T10:18:52.617Z,24.90
2022-07-30T10:21:20.152Z,24.90
2022-07-30T10:23:50.563Z,24.90
2022-07-30T10:26:18.312Z,24.90
2022-07-30T10:28:46.026Z,24.90
2022-07-30T10:31:47.285Z,24.90
2022-07-30T10:34:02.097Z,25.00
2022-07-30T10:36:30.390Z,25.00
2022-07-30T10:38:57.556Z,25.00
2022-07-30T10:41:54.207Z,25.00
2022-07-30T10:44:42.527Z,25.00
2022-07-30T10:47:14.024Z,25.00
2022-07-30T10:49:43.396Z,25.00
2022-07-30T10:52:12.071Z,25.00
2022-07-30T10:54:40.759Z,25.00
2022-07-30T10:57:15.052Z,25.00
2022-07-30T10:59:55.687Z,25.00
2022-07-30T11:02:24.840Z,25.00
2022-07-30T11:05:17.932Z,25.00
2022-07-30T11:07:47.681Z,25.00
2022-07-30T11:10:39.516Z,25.00
2022-07-30T11:13:09.646Z,25.00
2022-07-30T11:15:57.462Z,25.00
2022-07-30T11:18:26.839Z,25.00
2022-07-30T11:21:22.487Z,25.00
2022-07-30T11:23:53.418Z,25.00
2022-07-30T11:26:41.685Z,25.10
2022-07-30T11:29:33.073Z,25.10
2022-07-30T11:32:26.882Z,25.10
2022-07-30T11:35:12.875Z,25.10
2022-07-30T11:38:05.193Z,25.10
2022-07-30T11:41:02.322Z,25.10
2022-07-30T11:43:35.805Z,25.10
2022-07-30T11:46:12.201Z,25.10
2022-07-30T11:48:44.534Z,25.10
2022-07-30T11:51:11.397Z,25.10
2022-07-30T11:53:38.130Z,25.10
2022-07-30T11:56:05.796Z,25.10
2022-07-30T11:58:38.252Z,25.10
2022-07-30T12:01:09.233Z,25.10
2022-07-30T12:03:41.869Z,25.20
2022-07-30T12:06:17.922Z,25.20
2022-07-30T12:08:47.402Z,25.20
2022-07-30T12:11:14.344Z,25.20
2022-07-30T12:13:46.092Z,25.20
2022-07-30T12:16:17.509Z,25.20
2022-07-30T12:18:46.438Z,25.20
2022-07-30T12:21:16.103Z,25.20
2022-07-30T12:24:13.684Z,25.20
2022-07-30T12:26:40.811Z,25.20
2022-07-30T12:29:13.983Z,25.30
2022-07-30T12:31:41.483Z,25.30
2022-07-30T12:34:20.684Z,25.30
2022-07-30T12:36:47.436Z,25.30
2022-07-30T12:39:21.365Z,25.30
2022-07-30T12:41:50.090Z,25.30
2022-07-30T12:44:37.571Z,25.30
2022-07-30T12:47:25.326Z,25.30
2022-07-30T12:49:57.626Z,25.30
2022-07-30T12:52:33.729Z,25.30
2022-07-30T12:55:10.824Z,25.30
2022-07-30T12:58:07.559Z,25.30
2022-07-30T13:00:54.889Z,25.30
2022-07-30T13:03:23.689Z,25.40
2022-07-30T13:05:55.516Z,25.30
2022-07-30T13:08:45.914Z,25.40
2022-07-30T13:11:13.242Z,25.40
2022-07-30T13:13:39.958Z,25.40
2022-07-30T13:16:07.401Z,25.40
2022-07-30T13:18:35.767Z,25.40
2022-07-30T13:21:04.310Z,25.40
2022-07-30T13:23:31.345Z,25.40
2022-07-30T13:25:58.343Z,25.40
2022-07-30T13:28:25.474Z,25.40
2022-07-30T13:30:52.445Z,25.40
2022-07-30T13:33:19.141Z,25.40
2022-07-30T13:35:45.837Z,25.40
2022-07-30T13:38:13.581Z,25.40
2022-07-30T13:40:41.315Z,25.50
2022-07-30T13:43:08.720Z,25.50
2022-07-30T13:45:36.336Z,25.50
2022-07-30T13:48:04.017Z,25.50
2022-07-30T13:50:30.803Z,25.50
2022-07-30T13:53:02.040Z,25.50
2022-07-30T13:55:29.888Z,25.50
2022-07-30T13:57:56.966Z,25.50
2022-07-30T14:00:24.570Z,25.60
2022-07-30T14:02:51.753Z,25.50
2022-07-30T14:05:18.550Z,25.60
2022-07-30T14:07:45.276Z,25.60
2022-07-30T14:10:12.029Z,25.60
2022-07-30T14:12:39.962Z,25.60
2022-07-30T14:15:09.276Z,25.70
2022-07-30T14:17:36.342Z,25.70
2022-07-30T14:20:03.408Z,26.10
2022-07-30T14:22:30.223Z,26.50
2022-07-30T14:24:56.926Z,26.90
2022-07-30T14:27:23.637Z,27.10
2022-07-30T14:29:50.432Z,27.30
2022-07-30T14:32:17.286Z,27.30
2022-07-30T14:34:49.157Z,27.10
2022-07-30T14:37:16.724Z,26.90
2022-07-30T14:39:43.539Z,26.80
2022-07-30T14:42:11.279Z,26.80
2022-07-30T14:44:38.271Z,26.70
2022-07-30T14:47:05.393Z,26.60
2022-07-30T14:49:32.360Z,26.70
2022-07-30T14:51:59.196Z,26.70
2022-07-30T14:54:27.828Z,26.80
2022-07-30T14:56:58.225Z,26.80
2022-07-30T14:59:27.455Z,26.70
2022-07-30T15:01:55.354Z,26.80
2022-07-30T15:04:22.512Z,26.90
2022-07-30T15:06:49.369Z,26.80
2022-07-30T15:09:16.157Z,26.70
2022-07-30T15:12:09.012Z,26.70
2022-07-30T15:14:29.790Z,26.60
2022-07-30T15:17:03.484Z,26.40
2022-07-30T15:19:31.149Z,26.30
2022-07-30T15:21:59.019Z,26.20
2022-07-30T15:24:26.260Z,26.20
2022-07-30T15:26:55.784Z,26.10
2022-07-30T15:29:24.109Z,26.10
2022-07-30T15:31:51.422Z,26.10
2022-07-30T15:34:18.191Z,26.30
2022-07-30T15:36:45.021Z,26.50
2022-07-30T15:39:11.779Z,26.60
2022-07-30T15:41:39.062Z,26.60
2022-07-30T15:44:05.785Z,26.40
2022-07-30T15:46:32.522Z,26.30
2022-07-30T15:48:59.319Z,26.30
2022-07-30T15:51:26.138Z,26.50
2022-07-30T15:53:52.846Z,26.60
2022-07-30T15:56:19.670Z,26.60
2022-07-30T15:58:46.742Z,26.60
2022-07-30T16:01:13.564Z,26.70
2022-07-30T16:03:40.356Z,26.60
2022-07-30T16:06:07.090Z,26.60
2022-07-30T16:08:33.815Z,26.60
2022-07-30T16:11:03.724Z,26.50
2022-07-30T16:13:31.494Z,26.50
2022-07-30T16:15:58.257Z,26.60
2022-07-30T16:18:24.987Z,26.70
2022-07-30T16:20:51.750Z,26.80
2022-07-30T16:23:21.568Z,26.80
2022-07-30T16:25:48.650Z,26.80
2022-07-30T16:28:15.375Z,26.90
2022-07-30T16:30:50.686Z,26.90
2022-07-30T16:33:19.184Z,26.90
2022-07-30T16:35:49.083Z,26.90
2022-07-30T16:38:23.080Z,26.80
2022-07-30T16:40:50.231Z,26.60
2022-07-30T16:43:19.845Z,26.50
2022-07-30T16:45:47.356Z,26.40
2022-07-30T16:48:14.087Z,26.50
2022-07-30T16:50:42.331Z,26.50
2022-07-30T16:53:13.731Z,26.60
2022-07-30T16:55:41.356Z,26.50
2022-07-30T16:58:08.152Z,26.40
2022-07-30T17:00:34.955Z,26.30
2022-07-30T17:03:01.834Z,26.20
2022-07-30T17:05:29.003Z,26.30
2022-07-30T17:07:56.136Z,26.30
2022-07-30T17:10:25.448Z,26.40
2022-07-30T17:12:53.915Z,26.40
2022-07-30T17:15:20.650Z,26.40
2022-07-30T17:17:59.291Z,26.30
2022-07-30T17:20:26.023Z,26.30
2022-07-30T17:22:55.247Z,26.20
2022-07-30T17:25:27.426Z,26.10
2022-07-30T17:27:59.073Z,26.10
2022-07-30T17:30:27.297Z,26.00
2022-07-30T17:32:54.191Z,26.00
2022-07-30T17:35:21.090Z,26.00
2022-07-30T17:37:47.852Z,25.90
2022-07-30T17:40:29.007Z,25.90
2022-07-30T17:43:03.569Z,25.90
2022-07-30T17:45:31.301Z,25.90
2022-07-30T17:47:58.438Z,25.90
2022-07-30T17:50:25.293Z,25.80
2022-07-30T17:52:52.287Z,25.80
2022-07-30T17:55:19.122Z,25.80
2022-07-30T17:57:45.845Z,25.80
2022-07-30T18:00:13.130Z,25.80
2022-07-30T18:02:39.860Z,25.80
2022-07-30T18:05:06.913Z,25.80
2022-07-30T18:07:33.648Z,25.80
2022-07-30T18:10:00.352Z,25.80
2022-07-30T18:12:27.177Z,25.80
2022-07-30T18:14:55.127Z,25.70
2022-07-30T18:17:21.866Z,25.70
2022-07-30T18:19:48.692Z,25.70
2022-07-30T18:22:15.947Z,25.70
2022-07-30T18:24:54.256Z,25.70
2022-07-30T18:27:21.558Z,25.70
2022-07-30T18:29:48.443Z,25.70
2022-07-30T18:32:15.187Z,25.60
2022-07-30T18:34:41.948Z,25.70
2022-07-30T18:37:08.699Z,25.60
2022-07-30T18:39:35.478Z,25.60
2022-07-30T18:42:03.477Z,25.60
2022-07-30T18:44:30.878Z,25.60
2022-07-30T18:46:57.583Z,25.60
2022-07-30T18:49:36.735Z,25.60
2022-07-30T18:52:04.775Z,25.60
2022-07-30T18:54:31.794Z,25.50
2022-07-30T18:56:58.519Z,25.50
2022-07-30T18:59:25.241Z,25.50
2022-07-30T19:01:52.212Z,25.60
2022-07-30T19:04:18.934Z,25.50
2022-07-30T19:06:45.754Z,25.50
2022-07-30T19:09:17.368Z,25.50
2022-07-30T19:11:45.301Z,25.50
2022-07-30T19:14:13.242Z,25.50
2022-07-30T19:16:41.078Z,25.60
2022-07-30T19:19:08.131Z,25.50
2022-07-30T19:21:34.917Z,25.50
2022-07-30T19:24:01.926Z,25.60
2022-07-30T19:26:28.837Z,25.50
2022-07-30T19:28:55.618Z,25.50
2022-07-30T19:31:22.422Z,25.50
2022-07-30T19:33:49.568Z,25.50
2022-07-30T19:36:20.527Z,25.50
2022-07-30T19:38:48.815Z,25.50
2022-07-30T19:41:16.429Z,25.20
2022-07-30T19:43:43.271Z,25.50
2022-07-30T19:46:24.684Z,25.60
2022-07-30T19:48:51.482Z,25.50
2022-07-30T19:51:21.107Z,25.50
2022-07-30T19:53:52.165Z,25.50
2022-07-30T19:56:19.566Z,25.50
2022-07-30T19:58:46.452Z,25.50
2022-07-30T20:01:15.652Z,25.50
2022-07-30T20:03:42.902Z,25.60
2022-07-30T20:06:15.110Z,25.60
2022-07-30T20:08:44.969Z,25.60
2022-07-30T20:11:14.090Z,25.50
2022-07-30T20:13:59.368Z,25.50
2022-07-30T20:16:26.168Z,25.60
2022-07-30T20:18:54.565Z,25.50
2022-07-30T20:21:21.350Z,25.50
2022-07-30T20:24:08.319Z,25.50
2022-07-30T20:26:35.738Z,25.50
2022-07-30T20:29:02.603Z,25.50
2022-07-30T20:31:36.072Z,25.50
2022-07-30T20:34:04.799Z,25.50
2022-07-30T20:36:43.051Z,25.50
2022-07-30T20:39:10.622Z,25.50
2022-07-30T20:41:40.162Z,25.50
2022-07-30T20:44:10.164Z,25.50
2022-07-30T20:46:40.143Z,25.50
2022-07-30T20:49:06.899Z,25.40
2022-07-30T20:51:33.996Z,25.40
2022-07-30T20:54:01.049Z,25.50
2022-07-30T20:56:28.555Z,25.40
2022-07-30T20:58:56.813Z,25.40
2022-07-30T21:01:23.555Z,25.40
2022-07-30T21:03:50.433Z,25.40
2022-07-30T21:06:17.304Z,25.40
2022-07-30T21:08:44.081Z,25.40
2022-07-30T21:11:12.446Z,25.40
2022-07-30T21:13:39.627Z,25.40
2022-07-30T21:16:15.499Z,25.40
2022-07-30T21:18:49.710Z,25.40
2022-07-30T21:21:17.949Z,25.40
2022-07-30T21:23:58.260Z,25.40
2022-07-30T21:26:27.797Z,25.40
2022-07-30T21:28:55.819Z,25.40
2022-07-30T21:31:58.993Z,25.40
2022-07-30T21:34:09.777Z,25.40
2022-07-30T21:36:38.774Z,25.40
2022-07-30T21:39:06.162Z,25.40
2022-07-30T21:41:40.293Z,25.40
2022-07-30T21:44:08.016Z,25.40
2022-07-30T21:46:37.797Z,25.40
2022-07-30T21:49:07.044Z,25.40
2022-07-30T21:51:34.302Z,25.40
2022-07-30T21:54:01.168Z,25.40
2022-07-30T21:56:27.933Z,25.40
2022-07-30T21:58:54.712Z,25.40
2022-07-30T22:01:24.716Z,25.30
2022-07-30T22:04:04.212Z,25.40
2022-07-30T22:06:41.576Z,25.30
2022-07-30T22:09:19.459Z,25.30
2022-07-30T22:12:00.935Z,25.30
2022-07-30T22:14:28.989Z,25.30
2022-07-30T22:16:56.032Z,25.30
2022-07-30T22:19:23.273Z,25.30
2022-07-30T22:21:55.239Z,25.30
2022-07-30T22:24:28.877Z,25.30
2022-07-30T22:27:01.062Z,25.30
2022-07-30T22:29:33.766Z,25.30
2022-07-30T22:32:03.067Z,25.30
2022-07-30T22:34:30.348Z,25.30
2022-07-30T22:36:57.602Z,25.30
2022-07-30T22:39:31.703Z,25.30
2022-07-30T22:42:00.563Z,25.30
2022-07-30T22:44:28.219Z,25.30
2022-07-30T22:46:56.526Z,25.30
2022-07-30T22:49:45.154Z,25.30
2022-07-30T22:52:17.649Z,25.20
2022-07-30T22:54:50.987Z,25.20
2022-07-30T22:57:17.828Z,25.30
2022-07-30T22:59:58.012Z,25.30
2022-07-30T23:02:25.448Z,25.20
2022-07-30T23:04:54.755Z,25.20
2022-07-30T23:07:23.463Z,25.20
2022-07-30T23:09:55.918Z,25.20
2022-07-30T23:12:23.543Z,25.20
2022-07-30T23:14:51.946Z,25.20
2022-07-30T23:17:18.646Z,25.20
2022-07-30T23:19:45.379Z,25.20
2022-07-30T23:22:12.159Z,25.20
2022-07-30T23:24:38.912Z,25.20
2022-07-30T23:27:05.999Z,25.20
2022-07-30T23:29:32.875Z,25.20
2022-07-30T23:31:59.612Z,25.20
2022-07-30T23:34:26.545Z,25.20
2022-07-30T23:36:53.341Z,25.20
2022-07-30T23:39:20.071Z,25.20
2022-07-30T23:41:46.943Z,25.10
2022-07-30T23:44:13.651Z,25.20
2022-07-30T23:46:40.783Z,25.20
2022-07-30T23:49:07.711Z,25.10
2022-07-30T23:51:34.511Z,25.20
2022-07-30T23:54:01.978Z,25.20
2022-07-30T23:56:28.822Z,25.20
2022-07-30T23:58:56.240Z,25.10
